Terminal Aerodrome Forecast
Issued by NWS

Home | Current Version | Previous Version | Text Only | Print | Product List | Glossary On
Versions: 1 2 3 4 5 6 7 8 9 10 11 12 13
920
FTUS45 KVEF 041120
TAFBIH
TAF
KBIH 041120Z 0412/0512 VRB06KT P6SM SCT250
     FM041400 16007KT P6SM SCT250
     FM041700 17022G32KT P6SM BKN250
     FM042100 17026G36KT P6SM SCT100 BKN250
     FM050200 16013G20KT P6SM SCT100 BKN250=

USA.gov is the U.S. government's official web portal to all federal, state and local government web resources and services.